createdAt,value
2022-12-14T00:01:24.993Z,20.85
2022-12-14T00:03:52.951Z,21.42
2022-12-14T00:06:22.641Z,20.30
2022-12-14T00:08:51.523Z,20.30
2022-12-14T00:11:25.903Z,20.60
2022-12-14T00:13:54.555Z,18.27
2022-12-14T00:16:22.729Z,23.25
2022-12-14T00:18:51.573Z,21.25
2022-12-14T00:21:19.252Z,20.13
2022-12-14T00:23:47.284Z,19.40
2022-12-14T00:26:16.343Z,20.58
2022-12-14T00:28:44.373Z,21.95
2022-12-14T00:31:12.653Z,31.55
2022-12-14T00:33:40.219Z,27.08
2022-12-14T00:36:09.304Z,38.80
2022-12-14T00:38:37.609Z,72.40
2022-12-14T00:41:05.473Z,25.30
2022-12-14T00:43:33.242Z,22.13
2022-12-14T00:46:00.929Z,20.17
2022-12-14T00:48:29.065Z,22.05
2022-12-14T00:50:57.420Z,21.25
2022-12-14T00:53:26.045Z,23.23
2022-12-14T00:55:53.889Z,21.65
2022-12-14T00:58:23.272Z,19.85
2022-12-14T01:01:01.300Z,23.35
2022-12-14T01:03:29.636Z,21.70
2022-12-14T01:05:57.554Z,21.60
2022-12-14T01:08:25.522Z,20.63
2022-12-14T01:10:53.615Z,19.10
2022-12-14T01:13:21.140Z,20.35
2022-12-14T01:15:48.739Z,19.77
2022-12-14T01:18:16.401Z,23.83
2022-12-14T01:20:43.894Z,27.38
2022-12-14T01:23:11.524Z,21.27
2022-12-14T01:25:39.162Z,22.83
2022-12-14T01:28:06.844Z,18.85
2022-12-14T01:30:34.453Z,22.27
2022-12-14T01:33:02.281Z,26.25
2022-12-14T01:35:29.880Z,17.17
2022-12-14T01:37:57.671Z,18.77
2022-12-14T01:40:25.500Z,22.25
2022-12-14T01:42:53.072Z,19.67
2022-12-14T01:45:22.582Z,21.92
2022-12-14T01:47:55.322Z,20.73
2022-12-14T01:50:27.440Z,20.98
2022-12-14T01:52:56.413Z,22.27
2022-12-14T01:55:26.553Z,23.48
2022-12-14T01:58:13.740Z,25.35
2022-12-14T02:00:41.413Z,20.48
2022-12-14T02:03:12.273Z,25.45
2022-12-14T02:05:43.944Z,21.33
2022-12-14T02:08:12.156Z,23.05
2022-12-14T02:10:39.860Z,20.58
2022-12-14T02:13:17.614Z,16.30
2022-12-14T02:15:45.452Z,20.60
2022-12-14T02:18:16.364Z,19.42
2022-12-14T02:21:02.620Z,21.40
2022-12-14T02:23:33.314Z,19.05
2022-12-14T02:26:06.941Z,17.30
2022-12-14T02:28:53.032Z,20.10
2022-12-14T02:31:20.514Z,23.40
2022-12-14T02:33:55.800Z,18.90
2022-12-14T02:36:32.423Z,20.55
2022-12-14T02:39:03.293Z,24.60
2022-12-14T02:41:41.623Z,17.88
2022-12-14T02:44:09.103Z,22.17
2022-12-14T02:46:55.141Z,30.83
2022-12-14T02:49:25.544Z,18.77
2022-12-14T02:52:05.582Z,21.77
2022-12-14T02:54:33.104Z,22.02
2022-12-14T02:57:16.763Z,29.40
2022-12-14T02:59:44.830Z,22.58
2022-12-14T03:02:14.412Z,21.38
2022-12-14T03:04:47.767Z,20.05
2022-12-14T03:07:32.845Z,21.80
2022-12-14T03:10:04.752Z,19.77
2022-12-14T03:12:32.553Z,21.85
2022-12-14T03:15:00.822Z,25.85
2022-12-14T03:17:30.913Z,21.98
2022-12-14T03:20:11.612Z,21.83
2022-12-14T03:23:02.394Z,22.52
2022-12-14T03:25:32.162Z,24.73
2022-12-14T03:28:03.899Z,21.33
2022-12-14T03:30:58.761Z,24.45
2022-12-14T03:33:22.241Z,26.30
2022-12-14T03:35:59.372Z,23.17
2022-12-14T03:38:36.854Z,22.00
2022-12-14T03:41:16.652Z,22.92
2022-12-14T03:44:02.143Z,21.27
2022-12-14T03:46:37.702Z,20.55
2022-12-14T03:49:24.123Z,20.00
2022-12-14T03:52:11.810Z,20.48
2022-12-14T03:54:48.845Z,22.60
2022-12-14T03:57:36.651Z,22.17
2022-12-14T04:00:09.552Z,21.55
2022-12-14T04:02:49.674Z,22.85
2022-12-14T04:05:30.594Z,25.80
2022-12-14T04:08:10.032Z,22.83
2022-12-14T04:11:01.799Z,21.98
2022-12-14T04:14:18.832Z,20.92
2022-12-14T04:17:06.644Z,20.83
2022-12-14T04:19:48.889Z,22.15
2022-12-14T04:22:19.710Z,28.58
2022-12-14T04:25:13.072Z,24.10
2022-12-14T04:27:43.446Z,24.85
2022-12-14T04:30:11.980Z,23.20
2022-12-14T04:32:49.290Z,20.83
2022-12-14T04:35:38.493Z,23.25
2022-12-14T04:38:11.663Z,28.05
2022-12-14T04:41:05.735Z,26.48
2022-12-14T04:43:36.763Z,22.77
2022-12-14T04:46:12.942Z,23.73
2022-12-14T04:48:55.944Z,23.33
2022-12-14T04:51:30.551Z,28.58
2022-12-14T04:54:06.322Z,23.88
2022-12-14T04:56:37.404Z,27.35
2022-12-14T04:59:05.086Z,23.67
2022-12-14T05:01:39.140Z,23.48
2022-12-14T05:04:27.505Z,33.00
2022-12-14T05:06:55.065Z,25.75
2022-12-14T05:09:30.512Z,24.35
2022-12-14T05:12:24.411Z,26.30
2022-12-14T05:15:06.423Z,29.10
2022-12-14T05:17:38.499Z,24.90
2022-12-14T05:20:07.160Z,24.38
2022-12-14T05:22:35.302Z,27.10
2022-12-14T05:25:03.263Z,29.00
2022-12-14T05:27:31.148Z,27.92
2022-12-14T05:29:58.762Z,30.65
2022-12-14T05:32:26.514Z,26.08
2022-12-14T05:34:54.273Z,27.35
2022-12-14T05:37:22.832Z,25.20
2022-12-14T05:39:50.912Z,25.80
2022-12-14T05:42:18.530Z,29.02
2022-12-14T05:44:45.909Z,27.77
2022-12-14T05:47:14.260Z,28.30
2022-12-14T05:49:41.818Z,28.88
2022-12-14T05:52:09.529Z,27.88
2022-12-14T05:54:38.884Z,27.65
2022-12-14T05:57:07.255Z,24.15
2022-12-14T05:59:34.703Z,29.30
2022-12-14T06:02:02.398Z,26.98
2022-12-14T06:04:31.167Z,25.98
2022-12-14T06:06:58.843Z,29.58
2022-12-14T06:09:26.483Z,29.10
2022-12-14T06:11:54.121Z,23.23
2022-12-14T06:14:22.152Z,28.95
2022-12-14T06:16:49.823Z,29.65
2022-12-14T06:19:17.462Z,33.45
2022-12-14T06:21:45.450Z,26.98
2022-12-14T06:24:13.624Z,23.45
2022-12-14T06:26:41.376Z,26.75
2022-12-14T06:29:11.914Z,29.15
2022-12-14T06:31:39.711Z,28.83
2022-12-14T06:34:07.202Z,27.83
2022-12-14T06:36:36.244Z,28.30
2022-12-14T06:39:05.273Z,30.95
2022-12-14T06:41:33.393Z,27.30
2022-12-14T06:44:08.680Z,28.85
2022-12-14T06:46:36.866Z,25.65
2022-12-14T06:49:06.155Z,28.52
2022-12-14T06:51:34.114Z,27.65
2022-12-14T06:54:01.695Z,29.73
2022-12-14T06:56:29.542Z,24.13
2022-12-14T06:58:57.394Z,29.05
2022-12-14T07:01:26.063Z,31.88
2022-12-14T07:03:55.393Z,23.85
2022-12-14T07:06:24.178Z,25.42
2022-12-14T07:08:54.092Z,29.10
2022-12-14T07:11:22.272Z,25.75
2022-12-14T07:13:51.291Z,25.95
2022-12-14T07:16:24.109Z,26.77
2022-12-14T07:18:52.247Z,28.40
2022-12-14T07:21:21.212Z,27.58
2022-12-14T07:23:49.894Z,27.80
2022-12-14T07:26:19.330Z,29.38
2022-12-14T07:28:47.425Z,26.33
2022-12-14T07:31:16.841Z,45.35
2022-12-14T07:33:44.703Z,34.60
2022-12-14T07:36:13.662Z,28.10
2022-12-14T07:38:41.793Z,29.02
2022-12-14T07:41:22.643Z,28.33
2022-12-14T07:43:51.413Z,29.50
2022-12-14T07:46:20.215Z,32.60
2022-12-14T07:48:49.047Z,28.20
2022-12-14T07:51:17.751Z,29.17
2022-12-14T07:53:45.573Z,29.65
2022-12-14T07:56:17.442Z,28.90
2022-12-14T07:58:45.581Z,32.55
2022-12-14T08:01:14.923Z,42.33
2022-12-14T08:03:43.702Z,31.48
2022-12-14T08:06:12.953Z,34.22
2022-12-14T08:08:41.224Z,34.47
2022-12-14T08:11:09.603Z,44.50
2022-12-14T08:13:39.805Z,29.80
2022-12-14T08:16:08.875Z,34.42
2022-12-14T08:18:36.642Z,29.08
2022-12-14T08:21:05.314Z,27.48
2022-12-14T08:23:33.634Z,33.70
2022-12-14T08:26:02.820Z,26.27
2022-12-14T08:28:32.231Z,29.88
2022-12-14T08:31:04.325Z,33.30
2022-12-14T08:33:32.606Z,30.92
2022-12-14T08:36:05.633Z,28.35
2022-12-14T08:38:33.254Z,27.35
2022-12-14T08:41:09.603Z,25.90
2022-12-14T08:43:37.574Z,27.40
2022-12-14T08:46:05.852Z,28.00
2022-12-14T08:48:33.654Z,26.60
2022-12-14T08:51:08.632Z,27.58
2022-12-14T08:53:36.584Z,27.63
2022-12-14T08:56:11.564Z,32.13
2022-12-14T08:58:39.780Z,25.98
2022-12-14T09:01:14.794Z,30.92
2022-12-14T09:03:43.094Z,26.27
2022-12-14T09:06:11.515Z,31.25
2022-12-14T09:08:39.451Z,33.42
2022-12-14T09:11:07.310Z,29.60
2022-12-14T09:13:35.304Z,31.20
2022-12-14T09:16:04.408Z,26.88
2022-12-14T09:18:32.732Z,31.05
2022-12-14T09:21:01.820Z,26.13
2022-12-14T09:23:30.616Z,29.05
2022-12-14T09:26:09.437Z,27.27
2022-12-14T09:28:37.873Z,26.10
2022-12-14T09:31:07.263Z,25.65
2022-12-14T09:33:35.500Z,26.17
2022-12-14T09:36:04.375Z,28.23
2022-12-14T09:38:32.872Z,31.08
2022-12-14T09:41:07.021Z,28.85
2022-12-14T09:43:37.143Z,30.25
2022-12-14T09:46:11.398Z,26.60
2022-12-14T09:48:39.177Z,26.58
2022-12-14T09:51:07.082Z,34.67
2022-12-14T09:53:37.171Z,26.52
2022-12-14T09:56:07.083Z,30.02
2022-12-14T09:58:35.584Z,30.20
2022-12-14T10:01:09.453Z,44.15
2022-12-14T10:06:08.292Z,36.47
2022-12-14T10:08:39.508Z,34.67
2022-12-14T10:11:39.504Z,32.95
2022-12-14T10:14:41.012Z,31.85
2022-12-14T10:17:20.357Z,29.83
2022-12-14T10:19:58.378Z,28.52
2022-12-14T10:22:32.454Z,28.83
2022-12-14T10:25:20.523Z,30.80
2022-12-14T10:28:12.274Z,33.15
2022-12-14T10:30:42.252Z,32.15
2022-12-14T10:33:25.453Z,31.65
2022-12-14T10:35:57.052Z,30.35
2022-12-14T10:38:31.322Z,31.15
2022-12-14T10:41:04.223Z,27.40
2022-12-14T10:43:34.630Z,31.08
2022-12-14T10:46:14.507Z,27.40
2022-12-14T10:48:42.340Z,29.80
2022-12-14T10:51:25.443Z,33.92
2022-12-14T10:53:56.273Z,37.35
2022-12-14T10:56:29.101Z,33.65
2022-12-14T10:59:15.630Z,31.77
2022-12-14T11:01:43.801Z,31.70
2022-12-14T11:04:30.110Z,33.90
2022-12-14T11:07:01.811Z,30.17
2022-12-14T11:09:29.724Z,29.15
2022-12-14T11:12:02.536Z,32.25
2022-12-14T11:14:30.496Z,32.63
2022-12-14T11:16:58.560Z,35.30
2022-12-14T11:19:27.334Z,27.88
2022-12-14T11:22:27.502Z,33.60
2022-12-14T11:24:56.435Z,33.83
2022-12-14T11:27:25.725Z,31.90
2022-12-14T11:29:53.785Z,32.28
2022-12-14T11:32:24.931Z,29.92
2022-12-14T11:34:59.695Z,38.03
2022-12-14T11:37:29.773Z,36.92
2022-12-14T11:43:07.549Z,43.10
2022-12-14T11:45:41.753Z,41.15
2022-12-14T11:48:22.956Z,37.17
2022-12-14T11:50:59.829Z,43.78
2022-12-14T11:53:31.141Z,31.27
2022-12-14T12:01:43.568Z,79.32
2022-12-14T12:04:22.225Z,36.90
2022-12-14T12:06:54.153Z,32.72
2022-12-14T12:09:32.234Z,35.13
2022-12-14T12:14:50.012Z,36.45
2022-12-14T12:17:42.905Z,43.85
2022-12-14T12:20:19.776Z,45.80
2022-12-14T12:22:50.183Z,37.45
2022-12-14T12:25:28.399Z,45.90
2022-12-14T12:28:04.746Z,57.17
2022-12-14T12:30:34.595Z,44.45
2022-12-14T12:33:06.302Z,41.17
2022-12-14T12:35:38.221Z,34.95
2022-12-14T12:38:21.143Z,36.42
2022-12-14T12:40:55.942Z,35.35
2022-12-14T12:43:29.735Z,32.55
2022-12-14T12:45:57.587Z,34.13
2022-12-14T12:48:29.274Z,36.65
2022-12-14T12:51:01.662Z,35.10
2022-12-14T12:53:55.894Z,33.53
2022-12-14T12:56:30.154Z,35.30
2022-12-14T12:59:00.654Z,34.72
2022-12-14T13:01:37.091Z,32.35
2022-12-14T13:04:06.754Z,34.80
2022-12-14T13:06:41.076Z,29.88
2022-12-14T13:09:17.250Z,32.55
2022-12-14T13:11:45.186Z,32.33
2022-12-14T13:14:18.788Z,37.20
2022-12-14T13:16:46.753Z,27.42
2022-12-14T13:22:15.854Z,28.92
2022-12-14T13:24:45.152Z,31.90
2022-12-14T13:27:25.092Z,33.17
2022-12-14T13:29:55.263Z,32.53
2022-12-14T13:32:38.041Z,32.90
2022-12-14T13:35:11.611Z,30.60
2022-12-14T13:37:45.071Z,35.40
2022-12-14T13:40:15.660Z,31.10
2022-12-14T13:42:52.366Z,34.38
2022-12-14T13:45:24.604Z,43.65
2022-12-14T13:47:54.647Z,33.08
2022-12-14T13:50:37.097Z,32.40
2022-12-14T13:53:14.463Z,32.25
2022-12-14T13:55:49.045Z,30.27
2022-12-14T13:58:16.604Z,25.55
2022-12-14T14:00:47.573Z,23.50
2022-12-14T14:03:34.082Z,24.88
2022-12-14T14:06:13.750Z,25.23
2022-12-14T14:08:42.862Z,27.02
2022-12-14T14:11:38.199Z,28.77
2022-12-14T14:14:16.365Z,28.10
2022-12-14T14:16:45.326Z,25.45
2022-12-14T14:19:13.072Z,34.53
2022-12-14T14:22:26.283Z,36.55
2022-12-14T14:25:11.951Z,27.90
2022-12-14T14:27:40.521Z,29.60
2022-12-14T14:30:23.341Z,29.95
2022-12-14T14:33:07.635Z,25.83
2022-12-14T14:35:41.291Z,26.00
2022-12-14T14:38:12.843Z,31.27
2022-12-14T14:41:42.144Z,27.08
2022-12-14T14:43:36.533Z,28.20
2022-12-14T14:46:06.302Z,27.55
2022-12-14T14:48:39.651Z,29.45
2022-12-14T14:51:26.742Z,28.20
2022-12-14T14:54:30.341Z,31.80
2022-12-14T14:57:01.304Z,32.45
2022-12-14T14:59:32.714Z,40.75
2022-12-14T15:02:03.152Z,37.20
2022-12-14T15:04:34.367Z,43.05
2022-12-14T15:07:08.846Z,45.22
2022-12-14T15:09:44.882Z,40.38
2022-12-14T15:12:29.107Z,42.05
2022-12-14T15:14:59.763Z,49.13
2022-12-14T15:17:27.924Z,43.28
2022-12-14T15:19:56.177Z,44.33
2022-12-14T15:22:25.982Z,52.63
2022-12-14T15:24:55.370Z,47.13
2022-12-14T15:27:33.673Z,38.28
2022-12-14T15:30:13.501Z,40.00
2022-12-14T15:32:47.503Z,54.78
2022-12-14T15:35:17.039Z,64.65
2022-12-14T15:37:52.340Z,61.75
2022-12-14T15:40:23.939Z,66.68
2022-12-14T15:42:52.743Z,54.58
2022-12-14T15:45:26.886Z,59.67
2022-12-14T15:47:55.117Z,57.85
2022-12-14T15:50:22.985Z,52.65
2022-12-14T15:52:51.929Z,57.75
2022-12-14T15:55:34.273Z,51.35
2022-12-14T15:58:22.133Z,43.42
2022-12-14T16:00:54.545Z,42.00
2022-12-14T16:03:35.542Z,53.38
2022-12-14T16:06:04.062Z,47.45
2022-12-14T16:08:33.122Z,43.50
2022-12-14T16:11:03.367Z,44.08
2022-12-14T16:13:33.517Z,39.47
2022-12-14T16:16:10.033Z,44.05
2022-12-14T16:18:44.212Z,77.70
2022-12-14T16:21:32.711Z,141.45
2022-12-14T16:24:00.871Z,101.82
2022-12-14T16:26:40.263Z,93.30
2022-12-14T16:29:21.823Z,107.00
2022-12-14T16:31:49.364Z,67.50
2022-12-14T16:34:19.950Z,65.35
2022-12-14T16:37:14.579Z,61.50
2022-12-14T16:39:41.363Z,52.53
2022-12-14T16:42:18.881Z,53.70
2022-12-14T16:44:47.443Z,52.97
2022-12-14T16:47:14.921Z,49.10
2022-12-14T16:49:44.034Z,51.50
2022-12-14T16:52:17.045Z,50.88
2022-12-14T16:54:46.142Z,49.53
2022-12-14T16:57:24.715Z,44.53
2022-12-14T17:00:00.006Z,51.72
2022-12-14T17:02:29.731Z,50.05
2022-12-14T17:04:58.764Z,56.85
2022-12-14T17:07:27.593Z,55.38
2022-12-14T17:09:57.121Z,45.97
2022-12-14T17:12:27.661Z,53.92
2022-12-14T17:14:55.472Z,48.97
2022-12-14T17:17:25.864Z,52.58
2022-12-14T17:19:53.606Z,46.17
2022-12-14T17:22:25.832Z,55.13
2022-12-14T17:24:53.795Z,55.58
2022-12-14T17:27:26.980Z,51.63
2022-12-14T17:29:55.195Z,47.60
2022-12-14T17:32:23.293Z,47.75
2022-12-14T17:34:50.784Z,48.67
2022-12-14T17:37:19.648Z,48.13
2022-12-14T17:39:47.655Z,49.08
2022-12-14T17:42:16.314Z,56.58
2022-12-14T17:44:45.001Z,47.45
2022-12-14T17:47:13.741Z,47.78
2022-12-14T17:49:42.934Z,58.67
2022-12-14T17:52:17.814Z,48.58
2022-12-14T17:54:45.792Z,60.75
2022-12-14T17:57:20.727Z,56.17
2022-12-14T17:59:49.707Z,51.97
2022-12-14T18:02:27.750Z,52.88
2022-12-14T18:04:55.345Z,64.50
2022-12-14T18:07:23.867Z,58.50
2022-12-14T18:09:53.652Z,62.42
2022-12-14T18:12:23.503Z,53.28
2022-12-14T18:14:52.040Z,50.35
2022-12-14T18:17:20.110Z,60.35
2022-12-14T18:19:47.970Z,94.15
2022-12-14T18:22:17.537Z,89.82
2022-12-14T18:24:45.822Z,85.45
2022-12-14T18:27:15.342Z,47.40
2022-12-14T18:29:42.915Z,50.10
2022-12-14T18:32:14.810Z,48.20
2022-12-14T18:34:42.279Z,53.47
2022-12-14T18:37:10.143Z,59.78
2022-12-14T18:39:37.888Z,56.40
2022-12-14T18:42:05.484Z,57.72
2022-12-14T18:44:32.913Z,58.70
2022-12-14T18:47:20.306Z,58.78
2022-12-14T18:49:48.358Z,59.65
2022-12-14T18:52:16.562Z,47.72
2022-12-14T18:54:44.244Z,48.80
2022-12-14T18:57:12.468Z,47.15
2022-12-14T18:59:42.783Z,45.80
2022-12-14T19:02:15.604Z,43.30
2022-12-14T19:04:43.334Z,48.42
2022-12-14T19:07:11.310Z,43.47
2022-12-14T19:09:39.229Z,50.28
2022-12-14T19:12:07.289Z,52.50
2022-12-14T19:14:35.006Z,48.72
2022-12-14T19:17:02.632Z,59.10
2022-12-14T19:19:36.866Z,48.45
2022-12-14T19:22:08.821Z,53.20
2022-12-14T19:24:38.368Z,67.32
2022-12-14T19:27:06.455Z,50.28
2022-12-14T19:29:35.834Z,53.78
2022-12-14T19:32:05.846Z,59.80
2022-12-14T19:34:33.923Z,53.40
2022-12-14T19:37:01.909Z,57.13
2022-12-14T19:39:29.423Z,53.85
2022-12-14T19:41:58.193Z,53.00
2022-12-14T19:44:26.835Z,48.70
2022-12-14T19:46:54.818Z,50.67
2022-12-14T19:49:22.700Z,50.17
2022-12-14T19:51:51.007Z,43.70
2022-12-14T19:54:18.800Z,46.67
2022-12-14T19:56:46.405Z,49.42
2022-12-14T19:59:16.878Z,45.53
2022-12-14T20:01:48.018Z,48.83
2022-12-14T20:04:17.163Z,55.88
2022-12-14T20:06:44.930Z,45.42
2022-12-14T20:09:14.563Z,50.53
2022-12-14T20:11:42.243Z,44.88
2022-12-14T20:14:10.502Z,44.22
2022-12-14T20:16:38.230Z,42.13
2022-12-14T20:19:06.900Z,47.47
2022-12-14T20:21:34.443Z,42.20
2022-12-14T20:24:02.652Z,45.50
2022-12-14T20:26:30.825Z,52.13
2022-12-14T20:29:05.773Z,44.05
2022-12-14T20:31:34.072Z,48.38
2022-12-14T20:34:02.361Z,46.65
2022-12-14T20:36:30.965Z,83.72
2022-12-14T20:39:01.559Z,62.05
2022-12-14T20:41:29.794Z,41.45
2022-12-14T20:43:57.484Z,46.63
2022-12-14T20:46:31.571Z,45.17
2022-12-14T20:51:30.273Z,41.67
2022-12-14T20:53:57.872Z,44.90
2022-12-14T20:56:25.616Z,50.17
2022-12-14T20:58:53.513Z,50.88
2022-12-14T21:01:21.568Z,54.72
2022-12-14T21:03:50.150Z,60.97
2022-12-14T21:06:21.884Z,53.67
2022-12-14T21:09:02.053Z,49.70
2022-12-14T21:11:48.823Z,51.97
2022-12-14T21:14:16.594Z,52.05
2022-12-14T21:16:44.174Z,53.42
2022-12-14T21:19:13.492Z,51.80
2022-12-14T21:21:41.564Z,54.30
2022-12-14T21:24:10.864Z,67.35
2022-12-14T21:26:40.191Z,53.13
2022-12-14T21:29:09.024Z,58.10
2022-12-14T21:31:37.195Z,54.10
2022-12-14T21:34:05.390Z,49.45
2022-12-14T21:36:33.653Z,55.60
2022-12-14T21:39:02.765Z,61.28
2022-12-14T21:41:49.150Z,46.67
2022-12-14T21:44:17.200Z,54.83
2022-12-14T21:46:44.920Z,48.72
2022-12-14T21:49:12.466Z,55.33
2022-12-14T21:51:40.112Z,50.65
2022-12-14T21:54:07.773Z,45.78
2022-12-14T21:56:55.522Z,66.65
2022-12-14T21:59:30.263Z,47.55
2022-12-14T22:01:58.964Z,48.63
2022-12-14T22:04:27.307Z,57.13
2022-12-14T22:06:55.155Z,56.40
2022-12-14T22:09:23.002Z,52.50
2022-12-14T22:11:51.091Z,58.50
2022-12-14T22:14:19.963Z,49.83
2022-12-14T22:16:47.709Z,50.40
2022-12-14T22:19:17.233Z,60.28
2022-12-14T22:21:44.680Z,48.42
2022-12-14T22:24:12.315Z,47.30
2022-12-14T22:26:40.553Z,49.67
2022-12-14T22:29:08.823Z,48.15
2022-12-14T22:31:37.289Z,50.35
2022-12-14T22:34:09.441Z,53.75
2022-12-14T22:36:37.318Z,47.47
2022-12-14T22:39:05.323Z,50.72
2022-12-14T22:41:33.124Z,52.88
2022-12-14T22:44:00.583Z,49.33
2022-12-14T22:46:29.109Z,51.45
2022-12-14T22:48:57.122Z,53.00
2022-12-14T22:51:25.673Z,46.63
2022-12-14T22:53:53.433Z,49.40
2022-12-14T22:56:36.464Z,49.38
2022-12-14T22:59:05.782Z,48.60
2022-12-14T23:01:34.224Z,46.47
2022-12-14T23:04:02.679Z,47.20
2022-12-14T23:06:30.332Z,52.42
2022-12-14T23:09:16.551Z,47.15
2022-12-14T23:12:03.050Z,49.25
2022-12-14T23:14:49.361Z,47.03
2022-12-14T23:17:35.412Z,50.20
2022-12-14T23:20:21.662Z,51.28
2022-12-14T23:23:07.874Z,49.45
2022-12-14T23:25:54.302Z,54.03
2022-12-14T23:28:40.394Z,54.72
2022-12-14T23:31:26.389Z,52.47
2022-12-14T23:34:12.791Z,52.35
2022-12-14T23:36:59.231Z,53.38
2022-12-14T23:39:45.684Z,48.47
2022-12-14T23:42:32.104Z,49.08
2022-12-14T23:45:18.701Z,52.28
2022-12-14T23:48:04.801Z,50.90
2022-12-14T23:50:51.221Z,52.35
2022-12-14T23:53:37.222Z,52.03
2022-12-14T23:56:23.891Z,51.83
2022-12-14T23:59:13.706Z,47.35
